createdAt,value
2018-09-06T00:02:05.986Z,22.60
2018-09-06T00:04:34.671Z,19.80
2018-09-06T00:07:03.384Z,18.83
2018-09-06T00:09:32.078Z,21.10
2018-09-06T00:12:00.855Z,21.50
2018-09-06T00:14:29.585Z,19.60
2018-09-06T00:16:58.318Z,21.27
2018-09-06T00:19:27.060Z,21.40
2018-09-06T00:21:55.728Z,21.70
2018-09-06T00:24:24.457Z,22.50
2018-09-06T00:26:53.190Z,22.80
2018-09-06T00:29:21.957Z,22.50
2018-09-06T00:31:50.646Z,20.63
2018-09-06T00:34:19.408Z,22.80
2018-09-06T00:36:48.096Z,21.40
2018-09-06T00:39:16.855Z,20.23
2018-09-06T00:41:45.529Z,21.80
2018-09-06T00:44:14.289Z,23.70
2018-09-06T00:46:43.018Z,23.07
2018-09-06T00:49:11.748Z,22.67
2018-09-06T00:51:40.465Z,22.33
2018-09-06T00:54:09.165Z,21.13
2018-09-06T00:56:37.929Z,21.60
2018-09-06T00:59:06.640Z,22.53
2018-09-06T01:01:35.408Z,22.07
2018-09-06T01:04:04.160Z,22.33
2018-09-06T01:06:32.893Z,23.80
2018-09-06T01:09:01.558Z,21.70
2018-09-06T01:11:34.197Z,23.70
2018-09-06T01:14:06.526Z,23.47
2018-09-06T01:16:37.092Z,23.40
2018-09-06T01:19:08.089Z,22.13
2018-09-06T01:21:40.079Z,22.10
2018-09-06T01:24:13.879Z,22.30
2018-09-06T01:26:46.951Z,22.80
2018-09-06T01:29:21.374Z,22.77
2018-09-06T01:31:56.665Z,22.47
2018-09-06T01:34:31.018Z,22.93
2018-09-06T01:37:09.674Z,21.90
2018-09-06T01:39:42.975Z,22.90
2018-09-06T01:42:17.240Z,22.07
2018-09-06T01:44:50.138Z,21.57
2018-09-06T01:47:27.294Z,21.50
2018-09-06T01:50:00.055Z,22.40
2018-09-06T01:52:33.191Z,21.33
2018-09-06T01:55:06.260Z,23.40
2018-09-06T01:57:40.330Z,21.57
2018-09-06T02:00:15.491Z,22.07
2018-09-06T02:02:49.797Z,21.17
2018-09-06T02:05:27.033Z,23.57
2018-09-06T02:08:04.683Z,22.00
2018-09-06T02:10:37.907Z,23.07
2018-09-06T02:13:12.446Z,21.33
2018-09-06T02:15:49.621Z,24.10
2018-09-06T02:18:25.151Z,21.87
2018-09-06T02:21:00.033Z,21.57
2018-09-06T02:23:36.270Z,21.53
2018-09-06T02:26:10.227Z,23.47
2018-09-06T02:28:44.395Z,22.00
2018-09-06T02:31:17.404Z,22.63
2018-09-06T02:33:51.326Z,20.90
2018-09-06T02:36:25.401Z,22.20
2018-09-06T02:38:59.250Z,23.80
2018-09-06T02:41:43.721Z,22.90
2018-09-06T02:44:15.293Z,23.50
2018-09-06T02:46:48.685Z,22.77
2018-09-06T02:49:24.930Z,24.10
2018-09-06T02:51:57.157Z,21.60
2018-09-06T02:54:29.744Z,21.93
2018-09-06T02:57:02.603Z,22.67
2018-09-06T02:59:36.677Z,23.87
2018-09-06T03:02:09.164Z,22.90
2018-09-06T03:04:41.875Z,24.40
2018-09-06T03:07:15.847Z,24.10
2018-09-06T03:09:48.118Z,24.43
2018-09-06T03:12:17.972Z,23.90
2018-09-06T03:14:46.762Z,23.23
2018-09-06T03:17:15.510Z,23.50
2018-09-06T03:19:44.223Z,22.83
2018-09-06T03:22:12.872Z,23.40
2018-09-06T03:24:41.576Z,22.87
2018-09-06T03:27:10.313Z,24.50
2018-09-06T03:29:38.961Z,22.90
2018-09-06T03:32:07.673Z,23.67
2018-09-06T03:34:36.514Z,23.70
2018-09-06T03:37:05.193Z,23.97
2018-09-06T03:39:33.909Z,25.50
2018-09-06T03:42:02.706Z,25.03
2018-09-06T03:44:31.419Z,26.03
2018-09-06T03:47:00.204Z,24.87
2018-09-06T03:49:28.954Z,26.48
2018-09-06T03:51:57.686Z,24.85
2018-09-06T03:54:26.457Z,24.00
2018-09-06T03:56:55.253Z,25.32
2018-09-06T03:59:23.962Z,24.30
2018-09-06T04:01:52.621Z,24.75
2018-09-06T04:04:21.356Z,26.23
2018-09-06T04:06:50.041Z,24.45
2018-09-06T04:09:18.777Z,24.10
2018-09-06T04:11:47.504Z,25.87
2018-09-06T04:14:16.250Z,24.77
2018-09-06T04:16:45.095Z,23.62
2018-09-06T04:19:13.760Z,25.27
2018-09-06T04:21:42.422Z,23.92
2018-09-06T04:24:11.246Z,25.90
2018-09-06T04:26:39.942Z,24.20
2018-09-06T04:29:08.717Z,25.87
2018-09-06T04:31:37.372Z,25.05
2018-09-06T04:34:06.211Z,27.22
2018-09-06T04:36:34.962Z,25.30
2018-09-06T04:39:04.423Z,24.75
2018-09-06T04:41:33.162Z,25.30
2018-09-06T04:44:01.956Z,24.90
2018-09-06T04:46:30.625Z,24.80
2018-09-06T04:48:59.314Z,23.87
2018-09-06T04:51:28.005Z,24.97
2018-09-06T04:53:56.757Z,25.50
2018-09-06T04:56:25.455Z,24.72
2018-09-06T04:58:54.278Z,25.10
2018-09-06T05:01:23.022Z,24.80
2018-09-06T05:03:52.649Z,24.10
2018-09-06T05:06:21.358Z,25.50
2018-09-06T05:08:50.149Z,25.07
2018-09-06T05:11:18.953Z,26.07
2018-09-06T05:13:47.707Z,25.37
2018-09-06T05:16:16.428Z,24.30
2018-09-06T05:18:45.167Z,27.17
2018-09-06T05:21:13.875Z,26.68
2018-09-06T05:23:42.601Z,24.70
2018-09-06T05:26:11.330Z,25.70
2018-09-06T05:28:40.036Z,24.90
2018-09-06T05:31:08.817Z,25.12
2018-09-06T05:33:37.542Z,26.10
2018-09-06T05:36:06.273Z,26.73
2018-09-06T05:38:34.971Z,24.80
2018-09-06T05:41:03.711Z,25.80
2018-09-06T05:43:32.496Z,26.40
2018-09-06T05:46:01.228Z,25.30
2018-09-06T05:48:29.952Z,27.20
2018-09-06T05:50:58.746Z,25.17
2018-09-06T05:53:27.797Z,25.90
2018-09-06T05:55:56.637Z,25.43
2018-09-06T05:58:25.409Z,25.57
2018-09-06T06:00:54.159Z,27.43
2018-09-06T06:03:23.033Z,28.47
2018-09-06T06:05:51.794Z,28.50
2018-09-06T06:08:31.743Z,25.90
2018-09-06T06:11:00.501Z,27.83
2018-09-06T06:13:29.224Z,26.13
2018-09-06T06:15:58.048Z,28.40
2018-09-06T06:18:26.798Z,28.07
2018-09-06T06:20:55.617Z,27.20
2018-09-06T06:23:24.319Z,27.80
2018-09-06T06:25:53.050Z,27.67
2018-09-06T06:28:22.141Z,27.87
2018-09-06T06:30:50.808Z,28.60
2018-09-06T06:33:19.547Z,27.33
2018-09-06T06:35:48.225Z,28.50
2018-09-06T06:38:16.975Z,29.77
2018-09-06T06:40:45.659Z,31.13
2018-09-06T06:43:14.516Z,29.40
2018-09-06T06:45:43.494Z,28.40
2018-09-06T06:48:12.601Z,28.03
2018-09-06T06:50:42.269Z,29.13
2018-09-06T06:53:12.326Z,31.50
2018-09-06T06:55:41.826Z,32.70
2018-09-06T06:58:11.732Z,29.53
2018-09-06T07:00:41.845Z,31.40
2018-09-06T07:03:12.332Z,33.20
2018-09-06T07:05:41.840Z,32.53
2018-09-06T07:08:11.205Z,31.93
2018-09-06T07:10:40.245Z,32.70
2018-09-06T07:13:09.643Z,33.73
2018-09-06T07:15:48.379Z,32.93
2018-09-06T07:18:18.245Z,33.17
2018-09-06T07:20:46.993Z,38.07
2018-09-06T07:23:15.847Z,36.27
2018-09-06T07:25:44.632Z,36.23
2018-09-06T07:28:13.395Z,36.20
2018-09-06T07:30:42.179Z,38.07
2018-09-06T07:33:10.891Z,36.17
2018-09-06T07:35:41.817Z,38.50
2018-09-06T07:38:28.429Z,37.40
2018-09-06T07:40:58.253Z,34.30
2018-09-06T07:43:28.093Z,36.07
2018-09-06T07:45:56.926Z,32.17
2018-09-06T07:48:25.708Z,36.17
2018-09-06T07:50:54.453Z,33.23
2018-09-06T07:53:23.170Z,33.37
2018-09-06T07:55:51.893Z,33.67
2018-09-06T07:58:20.602Z,30.87
2018-09-06T08:00:49.325Z,33.53
2018-09-06T08:03:18.153Z,31.97
2018-09-06T08:05:46.943Z,33.47
2018-09-06T08:08:15.767Z,32.40
2018-09-06T08:10:44.468Z,32.47
2018-09-06T08:13:13.336Z,32.47
2018-09-06T08:15:42.046Z,31.47
2018-09-06T08:18:10.904Z,32.27
2018-09-06T08:20:39.781Z,29.23
2018-09-06T08:23:08.580Z,30.20
2018-09-06T08:25:37.535Z,29.30
2018-09-06T08:28:07.283Z,28.60
2018-09-06T08:30:36.313Z,28.13
2018-09-06T08:33:05.528Z,26.83
2018-09-06T08:35:34.318Z,25.80
2018-09-06T08:38:03.049Z,23.40
2018-09-06T08:40:31.839Z,25.73
2018-09-06T08:43:00.560Z,24.93
2018-09-06T08:45:29.433Z,25.13
2018-09-06T08:47:58.300Z,27.67
2018-09-06T08:50:27.132Z,27.27
2018-09-06T08:52:56.081Z,24.93
2018-09-06T08:55:25.002Z,25.10
2018-09-06T08:57:53.934Z,25.20
2018-09-06T09:00:22.702Z,25.03
2018-09-06T09:02:51.693Z,22.30
2018-09-06T09:05:20.630Z,23.73
2018-09-06T09:07:49.353Z,21.83
2018-09-06T09:10:18.288Z,24.80
2018-09-06T09:12:47.028Z,24.03
2018-09-06T09:15:15.874Z,22.77
2018-09-06T09:17:44.584Z,21.93
2018-09-06T09:20:13.345Z,22.50
2018-09-06T09:22:42.140Z,25.30
2018-09-06T09:25:10.918Z,23.20
2018-09-06T09:27:44.822Z,22.90
2018-09-06T09:30:14.178Z,24.13
2018-09-06T09:32:43.161Z,25.57
2018-09-06T09:35:12.015Z,25.53
2018-09-06T09:37:40.860Z,25.43
2018-09-06T09:40:09.664Z,22.93
2018-09-06T09:42:38.612Z,22.40
2018-09-06T09:45:07.412Z,19.90
2018-09-06T09:50:05.019Z,18.37
2018-09-06T09:52:34.893Z,16.40
2018-09-06T09:55:03.663Z,18.80
2018-09-06T09:57:32.401Z,18.00
2018-09-06T10:00:01.297Z,17.57
2018-09-06T10:02:36.701Z,18.53
2018-09-06T10:05:10.762Z,17.53
2018-09-06T10:07:45.462Z,17.53
2018-09-06T10:10:14.329Z,16.20
2018-09-06T10:12:43.242Z,17.33
2018-09-06T10:15:12.249Z,18.20
2018-09-06T10:17:41.032Z,15.10
2018-09-06T10:20:09.804Z,14.57
2018-09-06T10:22:38.961Z,13.67
2018-09-06T10:25:07.806Z,13.13
2018-09-06T10:27:36.690Z,13.63
2018-09-06T10:30:05.736Z,16.07
2018-09-06T10:32:34.571Z,14.50
2018-09-06T10:35:03.438Z,13.47
2018-09-06T10:37:32.372Z,12.53
2018-09-06T10:40:01.170Z,15.20
2018-09-06T10:42:29.886Z,13.80
2018-09-06T10:44:59.397Z,13.57
2018-09-06T10:47:28.195Z,17.40
2018-09-06T10:49:56.933Z,15.43
2018-09-06T10:52:25.697Z,16.70
2018-09-06T10:54:54.476Z,16.60
2018-09-06T10:57:23.257Z,17.37
2018-09-06T10:59:52.258Z,16.23
2018-09-06T11:02:21.164Z,16.40
2018-09-06T11:04:50.443Z,15.40
2018-09-06T11:07:19.346Z,16.57
2018-09-06T11:09:48.094Z,16.20
2018-09-06T11:12:16.888Z,16.83
2018-09-06T11:14:45.709Z,15.90
2018-09-06T11:17:14.513Z,15.63
2018-09-06T11:19:43.203Z,15.33
2018-09-06T11:22:12.618Z,15.23
2018-09-06T11:24:41.162Z,14.73
2018-09-06T11:27:09.907Z,15.63
2018-09-06T11:29:45.244Z,15.13
2018-09-06T11:32:21.690Z,16.10
2018-09-06T11:34:50.809Z,15.43
2018-09-06T11:37:19.735Z,18.37
2018-09-06T11:39:48.577Z,16.07
2018-09-06T11:42:17.689Z,16.30
2018-09-06T11:44:47.535Z,17.47
2018-09-06T11:47:16.503Z,16.73
2018-09-06T11:49:45.228Z,16.50
2018-09-06T11:52:14.017Z,15.03
2018-09-06T11:54:42.863Z,15.87
2018-09-06T11:57:11.828Z,16.17
2018-09-06T11:59:40.592Z,17.10
2018-09-06T12:02:10.058Z,17.53
2018-09-06T12:04:38.990Z,16.27
2018-09-06T12:07:07.809Z,15.83
2018-09-06T12:09:36.573Z,17.03
2018-09-06T12:12:05.417Z,15.43
2018-09-06T12:14:34.153Z,17.73
2018-09-06T12:17:03.000Z,17.63
2018-09-06T12:19:31.702Z,13.87
2018-09-06T12:22:00.587Z,15.60
2018-09-06T12:24:29.388Z,16.40
2018-09-06T12:26:58.209Z,15.03
2018-09-06T12:29:27.045Z,16.50
2018-09-06T12:31:55.991Z,14.80
2018-09-06T12:34:24.775Z,13.33
2018-09-06T12:36:53.481Z,15.07
2018-09-06T12:39:22.286Z,14.23
2018-09-06T12:41:51.179Z,14.90
2018-09-06T12:44:19.964Z,14.30
2018-09-06T12:46:48.716Z,15.37
2018-09-06T12:49:17.570Z,14.10
2018-09-06T12:51:46.400Z,13.13
2018-09-06T12:54:15.556Z,12.20
2018-09-06T12:56:45.242Z,12.90
2018-09-06T12:59:14.208Z,14.90
2018-09-06T13:01:44.465Z,13.80
2018-09-06T13:04:13.441Z,13.70
2018-09-06T13:06:42.264Z,12.83
2018-09-06T13:09:10.981Z,12.73
2018-09-06T13:11:39.922Z,13.33
2018-09-06T13:14:08.718Z,13.30
2018-09-06T13:16:37.603Z,12.43
2018-09-06T13:19:06.501Z,13.73
2018-09-06T13:21:35.312Z,11.83
2018-09-06T13:24:04.098Z,13.97
2018-09-06T13:26:32.884Z,11.00
2018-09-06T13:29:01.640Z,11.17
2018-09-06T13:31:30.589Z,10.23
2018-09-06T13:33:59.302Z,11.40
2018-09-06T13:36:28.243Z,12.00
2018-09-06T13:38:57.219Z,10.90
2018-09-06T13:41:26.021Z,14.50
2018-09-06T13:43:54.813Z,11.83
2018-09-06T13:46:23.834Z,11.37
2018-09-06T13:48:52.579Z,11.87
2018-09-06T13:51:21.513Z,11.87
2018-09-06T13:53:50.342Z,10.23
2018-09-06T13:56:19.203Z,11.10
2018-09-06T13:58:47.986Z,10.37
2018-09-06T14:01:16.903Z,10.90
2018-09-06T14:03:45.713Z,12.10
2018-09-06T14:06:14.654Z,12.23
2018-09-06T14:08:43.495Z,10.57
2018-09-06T14:11:12.370Z,11.97
2018-09-06T14:13:41.167Z,11.23
2018-09-06T14:16:10.050Z,11.70
2018-09-06T14:18:38.942Z,10.83
2018-09-06T14:21:07.782Z,11.13
2018-09-06T14:23:36.695Z,11.60
2018-09-06T14:26:05.751Z,10.33
2018-09-06T14:28:34.624Z,11.73
2018-09-06T14:31:03.749Z,10.63
2018-09-06T14:33:33.254Z,10.53
2018-09-06T14:36:02.128Z,11.73
2018-09-06T14:38:31.058Z,11.20
2018-09-06T14:40:59.777Z,11.63
2018-09-06T14:43:28.625Z,10.90
2018-09-06T14:45:57.435Z,11.10
2018-09-06T14:48:27.971Z,10.83
2018-09-06T14:50:56.789Z,12.03
2018-09-06T14:53:25.450Z,10.93
2018-09-06T14:55:54.384Z,12.03
2018-09-06T14:58:23.165Z,10.63
2018-09-06T15:00:51.959Z,10.87
2018-09-06T15:03:20.714Z,11.50
2018-09-06T15:05:49.566Z,10.87
2018-09-06T15:08:18.330Z,10.60
2018-09-06T15:10:47.355Z,10.40
2018-09-06T15:13:16.120Z,11.27
2018-09-06T15:15:44.922Z,11.10
2018-09-06T15:18:13.665Z,10.27
2018-09-06T15:20:42.332Z,9.80
2018-09-06T15:23:11.151Z,10.20
2018-09-06T15:25:40.042Z,9.93
2018-09-06T15:28:08.798Z,10.60
2018-09-06T15:30:39.764Z,10.70
2018-09-06T15:33:08.557Z,10.50
2018-09-06T15:35:38.507Z,11.00
2018-09-06T15:38:07.805Z,10.30
2018-09-06T15:40:36.561Z,10.40
2018-09-06T15:43:05.428Z,9.90
2018-09-06T15:45:34.393Z,10.27
2018-09-06T15:48:03.141Z,9.90
2018-09-06T15:50:31.930Z,11.43
2018-09-06T15:53:00.721Z,9.63
2018-09-06T15:55:29.482Z,11.10
2018-09-06T15:57:58.271Z,12.63
2018-09-06T16:00:27.136Z,11.70
2018-09-06T16:02:55.851Z,13.00
2018-09-06T16:05:24.655Z,12.50
2018-09-06T16:07:53.456Z,11.40
2018-09-06T16:10:22.157Z,11.53
2018-09-06T16:12:50.925Z,11.73
2018-09-06T16:15:19.827Z,12.10
2018-09-06T16:17:48.704Z,12.60
2018-09-06T16:20:17.487Z,12.40
2018-09-06T16:22:46.726Z,12.60
2018-09-06T16:25:15.775Z,12.57
2018-09-06T16:27:44.606Z,15.10
2018-09-06T16:30:13.525Z,10.97
2018-09-06T16:32:42.300Z,11.53
2018-09-06T16:35:11.041Z,9.90
2018-09-06T16:37:39.785Z,10.03
2018-09-06T16:40:08.531Z,10.77
2018-09-06T16:42:37.349Z,9.50
2018-09-06T16:45:06.059Z,9.80
2018-09-06T16:47:34.896Z,8.43
2018-09-06T16:50:03.707Z,7.70
2018-09-06T16:52:32.664Z,8.70
2018-09-06T16:55:01.432Z,7.60
2018-09-06T16:57:30.103Z,8.13
2018-09-06T16:59:58.913Z,8.50
2018-09-06T17:02:27.635Z,10.10
2018-09-06T17:04:56.470Z,9.30
2018-09-06T17:07:25.321Z,9.63
2018-09-06T17:09:54.142Z,9.30
2018-09-06T17:12:22.971Z,10.73
2018-09-06T17:14:51.768Z,10.13
2018-09-06T17:17:20.541Z,11.47
2018-09-06T17:19:49.283Z,11.60
2018-09-06T17:22:17.988Z,10.87
2018-09-06T17:24:46.807Z,12.10
2018-09-06T17:27:15.518Z,11.13
2018-09-06T17:29:44.210Z,10.53
2018-09-06T17:32:12.942Z,10.80
2018-09-06T17:34:41.782Z,11.13
2018-09-06T17:37:10.449Z,10.10
2018-09-06T17:39:39.191Z,10.30
2018-09-06T17:42:07.924Z,10.57
2018-09-06T17:44:36.632Z,10.17
2018-09-06T17:47:05.560Z,10.30
2018-09-06T17:49:34.329Z,11.40
2018-09-06T17:52:03.105Z,11.00
2018-09-06T17:54:31.909Z,11.60
2018-09-06T17:57:00.641Z,12.10
2018-09-06T17:59:29.369Z,12.27
2018-09-06T18:01:58.207Z,11.17
2018-09-06T18:04:27.032Z,10.93
2018-09-06T18:06:55.837Z,11.03
2018-09-06T18:09:24.624Z,12.00
2018-09-06T18:11:53.418Z,13.00
2018-09-06T18:14:22.154Z,12.03
2018-09-06T18:16:50.877Z,11.77
2018-09-06T18:19:19.670Z,11.40
2018-09-06T18:21:48.396Z,11.43
2018-09-06T18:24:17.161Z,12.20
2018-09-06T18:26:45.870Z,13.70
2018-09-06T18:29:14.661Z,25.17
2018-09-06T18:31:43.519Z,13.23
2018-09-06T18:34:12.249Z,12.40
2018-09-06T18:36:40.932Z,12.60
2018-09-06T18:39:09.681Z,15.10
2018-09-06T18:41:38.401Z,14.03
2018-09-06T18:44:07.222Z,14.83
2018-09-06T18:46:35.970Z,14.77
2018-09-06T18:49:04.702Z,15.20
2018-09-06T18:51:33.519Z,15.50
2018-09-06T18:54:02.240Z,12.13
2018-09-06T18:56:31.036Z,13.10
2018-09-06T18:58:59.777Z,14.77
2018-09-06T19:01:28.465Z,13.00
2018-09-06T19:03:57.207Z,13.27
2018-09-06T19:06:25.904Z,12.77
2018-09-06T19:08:54.726Z,14.00
2018-09-06T19:11:23.505Z,12.97
2018-09-06T19:13:52.238Z,14.60
2018-09-06T19:16:21.075Z,12.90
2018-09-06T19:18:49.884Z,13.60
2018-09-06T19:21:18.622Z,14.53
2018-09-06T19:23:47.352Z,14.07
2018-09-06T19:26:16.205Z,15.97
2018-09-06T19:28:44.942Z,15.50
2018-09-06T19:31:13.793Z,15.80
2018-09-06T19:33:42.549Z,13.73
2018-09-06T19:36:11.305Z,15.77
2018-09-06T19:38:40.728Z,14.87
2018-09-06T19:41:09.480Z,15.53
2018-09-06T19:43:38.224Z,15.80
2018-09-06T19:46:07.198Z,16.57
2018-09-06T19:48:35.877Z,16.57
2018-09-06T19:51:04.695Z,14.83
2018-09-06T19:53:33.441Z,17.00
2018-09-06T19:56:02.140Z,18.93
2018-09-06T19:58:30.856Z,17.17
2018-09-06T20:00:59.611Z,19.00
2018-09-06T20:03:32.691Z,18.07
2018-09-06T20:06:03.639Z,17.97
2018-09-06T20:08:32.309Z,18.87
2018-09-06T20:11:00.992Z,17.90
2018-09-06T20:13:29.690Z,19.43
2018-09-06T20:15:58.509Z,19.33
2018-09-06T20:18:27.291Z,20.43
2018-09-06T20:20:56.058Z,20.60
2018-09-06T20:23:24.796Z,22.27
2018-09-06T20:25:53.608Z,20.53
2018-09-06T20:28:22.354Z,22.93
2018-09-06T20:30:51.169Z,21.73
2018-09-06T20:33:19.881Z,22.33
2018-09-06T20:35:48.676Z,21.00
2018-09-06T20:38:17.434Z,21.33
2018-09-06T20:40:46.176Z,35.23
2018-09-06T20:43:15.000Z,22.70
2018-09-06T20:45:43.737Z,22.70
2018-09-06T20:48:12.602Z,23.40
2018-09-06T20:50:41.411Z,22.90
2018-09-06T20:53:10.209Z,23.30
2018-09-06T20:55:38.958Z,25.03
2018-09-06T20:58:07.719Z,24.07
2018-09-06T21:00:36.491Z,24.13
2018-09-06T21:03:05.274Z,23.60
2018-09-06T21:05:34.133Z,25.47
2018-09-06T21:08:02.857Z,24.33
2018-09-06T21:10:31.688Z,24.73
2018-09-06T21:13:00.484Z,25.40
2018-09-06T21:15:29.221Z,26.70
2018-09-06T21:17:57.949Z,24.70
2018-09-06T21:20:26.657Z,25.47
2018-09-06T21:22:55.550Z,26.20
2018-09-06T21:25:24.325Z,26.37
2018-09-06T21:27:53.029Z,24.20
2018-09-06T21:30:21.992Z,25.07
2018-09-06T21:32:50.772Z,26.47
2018-09-06T21:35:19.549Z,26.30
2018-09-06T21:37:48.346Z,27.07
2018-09-06T21:40:17.042Z,27.23
2018-09-06T21:42:45.782Z,27.17
2018-09-06T21:45:14.533Z,27.80
2018-09-06T21:47:43.352Z,26.80
2018-09-06T21:50:12.059Z,28.57
2018-09-06T21:52:40.837Z,31.53
2018-09-06T21:55:09.704Z,27.80
2018-09-06T21:57:38.457Z,29.47
2018-09-06T22:00:07.461Z,30.13
2018-09-06T22:02:41.353Z,30.47
2018-09-06T22:05:10.186Z,30.80
2018-09-06T22:07:38.867Z,31.30
2018-09-06T22:10:07.647Z,31.30
2018-09-06T22:12:36.409Z,31.17
2018-09-06T22:15:05.154Z,33.63
2018-09-06T22:17:34.127Z,32.90
2018-09-06T22:20:03.000Z,35.30
2018-09-06T22:22:31.772Z,33.53
2018-09-06T22:25:00.479Z,36.87
2018-09-06T22:27:29.215Z,36.20
2018-09-06T22:29:58.012Z,34.67
2018-09-06T22:32:26.821Z,37.20
2018-09-06T22:34:55.633Z,35.57
2018-09-06T22:37:24.454Z,37.10
2018-09-06T22:39:53.209Z,36.97
2018-09-06T22:42:21.929Z,34.83
2018-09-06T22:44:50.833Z,37.50
2018-09-06T22:47:20.278Z,34.97
2018-09-06T22:49:49.043Z,35.20
2018-09-06T22:52:17.829Z,33.50
2018-09-06T22:54:46.505Z,37.00
2018-09-06T22:57:15.304Z,35.80
2018-09-06T22:59:44.087Z,37.20
2018-09-06T23:02:12.810Z,34.20
2018-09-06T23:04:41.540Z,31.80
2018-09-06T23:07:10.368Z,32.53
2018-09-06T23:09:39.101Z,34.60
2018-09-06T23:12:07.801Z,33.90
2018-09-06T23:14:36.491Z,33.53
2018-09-06T23:17:05.251Z,33.80
2018-09-06T23:19:33.974Z,32.00
2018-09-06T23:22:02.718Z,32.30
2018-09-06T23:24:31.434Z,30.90
2018-09-06T23:27:00.257Z,33.20
2018-09-06T23:29:29.032Z,33.23
2018-09-06T23:31:57.735Z,30.47
2018-09-06T23:34:30.356Z,33.67
2018-09-06T23:36:59.085Z,32.37
2018-09-06T23:39:27.805Z,34.73
2018-09-06T23:41:56.502Z,31.33
2018-09-06T23:44:25.270Z,31.30
2018-09-06T23:46:54.026Z,31.20
2018-09-06T23:49:22.809Z,30.23
2018-09-06T23:51:51.630Z,31.73
2018-09-06T23:54:20.426Z,30.67
2018-09-06T23:56:49.208Z,33.23
2018-09-06T23:59:17.890Z,32.53
